createdAt,value
2022-11-09T00:02:10.361Z,4.18
2022-11-09T00:05:33.283Z,5.05
2022-11-09T00:08:56.502Z,3.78
2022-11-09T00:12:20.788Z,4.22
2022-11-09T00:15:43.941Z,3.13
2022-11-09T00:19:06.973Z,3.53
2022-11-09T00:22:29.880Z,4.00
2022-11-09T00:25:52.779Z,3.75
2022-11-09T00:29:17.034Z,3.70
2022-11-09T00:32:39.971Z,3.58
2022-11-09T00:36:07.562Z,4.75
2022-11-09T00:39:30.725Z,3.65
2022-11-09T00:42:54.460Z,3.22
2022-11-09T00:46:19.041Z,3.72
2022-11-09T00:49:42.249Z,3.58
2022-11-09T00:53:05.571Z,4.05
2022-11-09T00:56:28.618Z,3.63
2022-11-09T00:59:51.896Z,3.20
2022-11-09T01:03:16.957Z,3.60
2022-11-09T01:06:40.133Z,3.03
2022-11-09T01:10:05.701Z,3.95
2022-11-09T01:13:28.612Z,2.80
2022-11-09T01:16:52.043Z,2.80
2022-11-09T01:20:16.577Z,3.13
2022-11-09T01:23:40.450Z,3.15
2022-11-09T01:27:03.360Z,3.05
2022-11-09T01:30:26.696Z,4.18
2022-11-09T01:33:50.130Z,3.33
2022-11-09T01:37:14.387Z,3.30
2022-11-09T01:40:39.288Z,4.30
2022-11-09T01:44:11.744Z,3.22
2022-11-09T01:47:37.679Z,3.70
2022-11-09T01:51:05.264Z,2.38
2022-11-09T01:54:34.671Z,2.88
2022-11-09T01:58:03.508Z,2.63
2022-11-09T02:01:26.953Z,2.47
2022-11-09T02:04:55.188Z,2.55
2022-11-09T02:08:21.567Z,2.88
2022-11-09T02:11:45.856Z,3.30
2022-11-09T02:15:11.426Z,2.88
2022-11-09T02:18:35.506Z,3.17
2022-11-09T02:22:00.111Z,3.97
2022-11-09T02:25:23.147Z,3.47
2022-11-09T02:28:46.546Z,3.85
2022-11-09T02:32:15.487Z,3.85
2022-11-09T02:35:38.487Z,3.42
2022-11-09T02:39:04.164Z,3.65
2022-11-09T02:42:27.406Z,3.15
2022-11-09T02:45:50.407Z,2.88
2022-11-09T02:49:13.401Z,3.45
2022-11-09T02:52:36.554Z,3.28
2022-11-09T02:56:02.238Z,2.67
2022-11-09T02:59:25.325Z,3.15
2022-11-09T03:02:49.098Z,3.13
2022-11-09T03:06:12.251Z,3.08
2022-11-09T03:09:35.598Z,3.47
2022-11-09T03:12:59.967Z,3.55
2022-11-09T03:16:23.008Z,2.67
2022-11-09T03:19:46.319Z,3.05
2022-11-09T03:23:10.908Z,2.72
2022-11-09T03:26:35.205Z,2.53
2022-11-09T03:29:59.568Z,2.70
2022-11-09T03:33:22.983Z,3.08
2022-11-09T03:36:45.988Z,2.47
2022-11-09T03:40:10.160Z,2.60
2022-11-09T03:43:34.987Z,2.30
2022-11-09T03:46:59.236Z,2.90
2022-11-09T03:50:22.148Z,3.30
2022-11-09T03:53:45.059Z,2.70
2022-11-09T03:57:08.005Z,2.63
2022-11-09T04:00:31.291Z,2.60
2022-11-09T04:03:56.604Z,2.92
2022-11-09T04:07:19.761Z,2.90
2022-11-09T04:10:42.739Z,2.63
2022-11-09T04:14:05.607Z,2.70
2022-11-09T04:17:28.512Z,2.67
2022-11-09T04:20:52.811Z,2.80
2022-11-09T04:24:16.018Z,3.15
2022-11-09T04:27:38.928Z,2.58
2022-11-09T04:31:02.874Z,2.03
2022-11-09T04:34:25.835Z,2.30
2022-11-09T04:37:55.968Z,2.17
2022-11-09T04:41:18.868Z,2.25
2022-11-09T04:44:41.743Z,2.67
2022-11-09T04:48:06.931Z,2.58
2022-11-09T04:51:29.860Z,3.25
2022-11-09T04:54:54.223Z,2.53
2022-11-09T04:58:21.018Z,2.95
2022-11-09T05:01:46.743Z,2.58
2022-11-09T05:05:09.891Z,2.67
2022-11-09T05:08:32.780Z,3.17
2022-11-09T05:11:57.074Z,2.47
2022-11-09T05:15:19.979Z,2.70
2022-11-09T05:18:42.862Z,3.03
2022-11-09T05:22:19.700Z,2.55
2022-11-09T05:25:42.648Z,2.80
2022-11-09T05:29:08.877Z,2.55
2022-11-09T05:32:32.174Z,2.75
2022-11-09T05:35:55.599Z,3.05
2022-11-09T05:39:18.511Z,2.75
2022-11-09T05:42:41.933Z,2.78
2022-11-09T05:46:06.962Z,2.72
2022-11-09T05:49:29.914Z,3.03
2022-11-09T05:52:54.420Z,2.35
2022-11-09T05:56:17.491Z,3.03
2022-11-09T05:59:40.372Z,3.00
2022-11-09T06:03:05.509Z,3.58
2022-11-09T06:06:29.878Z,5.03
2022-11-09T06:09:52.851Z,3.60
2022-11-09T06:13:15.756Z,3.00
2022-11-09T06:16:38.652Z,3.15
2022-11-09T06:20:04.101Z,3.55
2022-11-09T06:23:27.576Z,4.10
2022-11-09T06:26:50.496Z,3.47
2022-11-09T06:30:13.921Z,3.75
2022-11-09T06:33:37.471Z,3.47
2022-11-09T06:37:01.734Z,3.63
2022-11-09T06:40:24.705Z,3.45
2022-11-09T06:43:47.780Z,3.72
2022-11-09T06:47:10.726Z,3.45
2022-11-09T06:50:34.656Z,3.45
2022-11-09T06:53:58.987Z,3.53
2022-11-09T06:57:21.925Z,4.82
2022-11-09T07:00:45.405Z,3.20
2022-11-09T07:04:08.397Z,4.40
2022-11-09T07:07:31.327Z,4.60
2022-11-09T07:10:55.572Z,3.40
2022-11-09T07:14:18.588Z,3.60
2022-11-09T07:17:41.834Z,3.25
2022-11-09T07:21:08.825Z,3.50
2022-11-09T07:24:35.828Z,4.00
2022-11-09T07:28:05.163Z,2.95
2022-11-09T07:31:29.298Z,3.40
2022-11-09T07:34:52.234Z,3.75
2022-11-09T07:38:16.748Z,3.63
2022-11-09T07:41:39.718Z,3.55
2022-11-09T07:45:04.084Z,3.83
2022-11-09T07:48:26.972Z,4.03
2022-11-09T07:51:49.943Z,3.45
2022-11-09T07:55:12.913Z,3.97
2022-11-09T07:58:36.855Z,3.22
2022-11-09T08:02:01.161Z,3.20
2022-11-09T08:05:24.695Z,3.17
2022-11-09T08:08:49.414Z,3.63
2022-11-09T08:12:12.332Z,3.63
2022-11-09T08:15:36.297Z,2.58
2022-11-09T08:19:00.597Z,2.83
2022-11-09T08:22:23.565Z,3.78
2022-11-09T08:25:46.768Z,2.67
2022-11-09T08:29:09.690Z,3.15
2022-11-09T08:32:33.275Z,2.83
2022-11-09T08:35:57.615Z,2.75
2022-11-09T08:39:23.033Z,3.15
2022-11-09T08:42:46.308Z,3.42
2022-11-09T08:46:09.231Z,2.50
2022-11-09T08:49:32.382Z,2.70
2022-11-09T08:52:56.995Z,2.88
2022-11-09T08:56:19.896Z,2.45
2022-11-09T08:59:42.815Z,2.47
2022-11-09T09:03:06.738Z,2.45
2022-11-09T09:06:31.298Z,3.03
2022-11-09T09:09:55.842Z,2.22
2022-11-09T09:13:22.465Z,1.90
2022-11-09T09:16:45.573Z,2.15
2022-11-09T09:20:08.905Z,2.50
2022-11-09T09:23:31.781Z,2.72
2022-11-09T09:26:56.421Z,2.17
2022-11-09T09:30:19.768Z,2.10
2022-11-09T09:33:42.676Z,2.15
2022-11-09T09:37:05.606Z,1.85
2022-11-09T09:40:35.258Z,1.83
2022-11-09T09:44:03.246Z,3.05
2022-11-09T09:47:38.169Z,1.92
2022-11-09T09:51:05.188Z,2.25
2022-11-09T09:54:32.456Z,2.00
2022-11-09T09:57:57.912Z,1.98
2022-11-09T10:01:27.197Z,2.15
2022-11-09T10:04:50.850Z,1.80
2022-11-09T10:08:22.654Z,1.85
2022-11-09T10:12:00.775Z,1.98
2022-11-09T10:15:32.435Z,1.92
2022-11-09T10:19:21.636Z,2.00
2022-11-09T10:23:07.708Z,2.55
2022-11-09T10:26:44.336Z,2.03
2022-11-09T10:30:15.184Z,2.20
2022-11-09T10:33:38.712Z,1.42
2022-11-09T10:37:08.312Z,1.67
2022-11-09T10:40:36.156Z,2.53
2022-11-09T10:44:19.512Z,2.08
2022-11-09T10:48:02.317Z,1.73
2022-11-09T10:51:46.457Z,2.03
2022-11-09T10:55:30.574Z,2.83
2022-11-09T10:59:38.548Z,2.22
2022-11-09T11:03:20.416Z,2.38
2022-11-09T11:07:19.726Z,1.77
2022-11-09T11:11:35.608Z,1.45
2022-11-09T11:15:24.428Z,2.17
2022-11-09T11:19:06.597Z,2.00
2022-11-09T11:22:48.301Z,1.60
2022-11-09T11:26:38.897Z,2.13
2022-11-09T11:30:22.871Z,1.70
2022-11-09T11:34:09.980Z,2.13
2022-11-09T11:38:04.130Z,1.90
2022-11-09T11:42:01.576Z,1.77
2022-11-09T11:45:47.391Z,2.10
2022-11-09T11:49:50.340Z,2.28
2022-11-09T11:53:51.105Z,1.80
2022-11-09T11:57:42.958Z,1.92
2022-11-09T12:01:44.701Z,1.77
2022-11-09T12:06:17.200Z,4.35
2022-11-09T12:10:20.420Z,2.35
2022-11-09T12:14:12.450Z,2.20
2022-11-09T12:18:04.964Z,2.30
2022-11-09T12:21:55.477Z,1.92
2022-11-09T12:25:47.231Z,2.22
2022-11-09T12:29:38.548Z,2.65
2022-11-09T12:33:33.246Z,2.75
2022-11-09T12:37:21.080Z,3.35
2022-11-09T12:41:08.577Z,2.58
2022-11-09T12:45:00.257Z,3.65
2022-11-09T12:48:42.428Z,2.60
2022-11-09T12:52:28.852Z,2.60
2022-11-09T12:56:18.336Z,3.63
2022-11-09T13:00:01.883Z,2.35
2022-11-09T13:03:55.752Z,2.40
2022-11-09T13:07:50.476Z,2.40
2022-11-09T13:11:38.424Z,2.20
2022-11-09T13:15:26.461Z,2.55
2022-11-09T13:19:09.976Z,3.08
2022-11-09T13:23:02.526Z,2.47
2022-11-09T13:26:57.672Z,2.53
2022-11-09T13:30:44.767Z,2.42
2022-11-09T13:34:41.543Z,2.55
2022-11-09T13:38:24.268Z,1.92
2022-11-09T13:42:25.341Z,1.92
2022-11-09T13:46:26.835Z,3.20
2022-11-09T13:50:18.826Z,2.92
2022-11-09T13:54:02.368Z,2.17
2022-11-09T13:57:46.589Z,2.58
2022-11-09T14:01:35.559Z,2.00
2022-11-09T14:05:27.863Z,2.55
2022-11-09T14:09:19.458Z,1.98
2022-11-09T14:13:14.421Z,2.90
2022-11-09T14:17:09.092Z,2.08
2022-11-09T14:20:56.198Z,3.70
2022-11-09T14:24:39.352Z,2.05
2022-11-09T14:28:23.482Z,2.42
2022-11-09T14:32:24.316Z,2.10
2022-11-09T14:36:07.005Z,2.50
2022-11-09T14:39:50.467Z,2.38
2022-11-09T14:43:40.773Z,2.25
2022-11-09T14:47:31.716Z,2.88
2022-11-09T14:51:14.614Z,2.58
2022-11-09T14:54:56.453Z,2.50
2022-11-09T14:58:41.707Z,2.97
2022-11-09T15:02:24.985Z,4.45
2022-11-09T15:06:08.240Z,5.30
2022-11-09T15:09:52.677Z,5.25
2022-11-09T15:13:36.564Z,5.22
2022-11-09T15:17:21.140Z,5.50
2022-11-09T15:21:19.432Z,6.43
2022-11-09T15:25:01.175Z,4.22
2022-11-09T15:28:46.985Z,5.28
2022-11-09T15:32:28.539Z,3.75
2022-11-09T15:36:32.716Z,4.53
2022-11-09T15:40:16.633Z,3.60
2022-11-09T15:43:58.269Z,4.80
2022-11-09T15:47:40.161Z,4.13
2022-11-09T15:51:22.958Z,4.32
2022-11-09T15:55:04.694Z,4.35
2022-11-09T15:58:48.604Z,3.83
2022-11-09T16:02:30.332Z,4.00
2022-11-09T16:06:14.887Z,3.25
2022-11-09T16:09:58.196Z,3.90
2022-11-09T16:13:39.809Z,3.78
2022-11-09T16:17:21.609Z,3.80
2022-11-09T16:21:08.641Z,3.53
2022-11-09T16:24:50.737Z,3.90
2022-11-09T16:28:33.532Z,3.35
2022-11-09T16:32:14.948Z,4.32
2022-11-09T16:35:58.262Z,4.25
2022-11-09T16:39:40.250Z,3.65
2022-11-09T16:43:21.994Z,4.18
2022-11-09T16:47:07.909Z,4.30
2022-11-09T16:50:49.586Z,3.22
2022-11-09T16:54:31.096Z,3.20
2022-11-09T16:58:12.691Z,3.13
2022-11-09T17:01:55.927Z,3.58
2022-11-09T17:05:38.957Z,4.47
2022-11-09T17:09:20.926Z,3.60
2022-11-09T17:13:02.642Z,3.95
2022-11-09T17:16:44.070Z,3.55
2022-11-09T17:20:25.637Z,3.40
2022-11-09T17:24:08.949Z,3.72
2022-11-09T17:27:50.252Z,3.65
2022-11-09T17:31:31.783Z,2.85
2022-11-09T17:35:13.300Z,3.92
2022-11-09T17:38:54.709Z,3.28
2022-11-09T17:42:37.453Z,2.95
2022-11-09T17:46:20.901Z,3.55
2022-11-09T17:50:02.770Z,3.58
2022-11-09T17:53:44.760Z,3.05
2022-11-09T17:57:26.067Z,4.15
2022-11-09T18:01:10.037Z,3.47
2022-11-09T18:04:51.757Z,3.50
2022-11-09T18:08:33.111Z,3.70
2022-11-09T18:12:16.290Z,2.97
2022-11-09T18:15:58.175Z,3.50
2022-11-09T18:19:40.748Z,2.85
2022-11-09T18:23:22.260Z,3.13
2022-11-09T18:27:04.754Z,3.40
2022-11-09T18:30:46.298Z,3.00
2022-11-09T18:34:28.002Z,4.00
2022-11-09T18:38:13.236Z,3.65
2022-11-09T18:41:56.940Z,2.75
2022-11-09T18:45:38.211Z,4.70
2022-11-09T18:49:20.084Z,3.83
2022-11-09T18:53:01.839Z,3.58
2022-11-09T18:56:46.035Z,3.17
2022-11-09T19:00:27.602Z,4.22
2022-11-09T19:04:10.714Z,4.28
2022-11-09T19:07:52.285Z,4.95
2022-11-09T19:11:33.997Z,4.60
2022-11-09T19:15:16.886Z,3.63
2022-11-09T19:18:58.805Z,4.00
2022-11-09T19:22:40.551Z,3.67
2022-11-09T19:26:23.289Z,3.25
2022-11-09T19:30:09.482Z,4.05
2022-11-09T19:33:52.930Z,3.88
2022-11-09T19:37:34.395Z,4.65
2022-11-09T19:41:16.126Z,4.00
2022-11-09T19:44:57.874Z,3.75
2022-11-09T19:48:44.162Z,4.68
2022-11-09T19:52:27.004Z,5.18
2022-11-09T19:56:09.579Z,6.03
2022-11-09T19:59:51.052Z,3.72
2022-11-09T20:03:32.534Z,3.97
2022-11-09T20:07:13.946Z,4.28
2022-11-09T20:10:56.653Z,4.38
2022-11-09T20:14:38.269Z,4.40
2022-11-09T20:18:20.499Z,5.72
2022-11-09T20:22:02.040Z,3.75
2022-11-09T20:25:43.379Z,4.82
2022-11-09T20:29:26.129Z,4.30
2022-11-09T20:33:09.544Z,4.25
2022-11-09T20:36:51.084Z,3.75
2022-11-09T20:40:32.494Z,4.10
2022-11-09T20:44:14.348Z,6.95
2022-11-09T20:48:10.527Z,4.47
2022-11-09T20:51:59.389Z,4.38
2022-11-09T20:55:42.669Z,5.35
2022-11-09T20:59:24.490Z,4.35
2022-11-09T21:03:08.140Z,4.70
2022-11-09T21:06:49.668Z,5.20
2022-11-09T21:10:31.536Z,4.50
2022-11-09T21:14:13.141Z,5.18
2022-11-09T21:17:54.900Z,4.63
2022-11-09T21:21:37.604Z,4.30
2022-11-09T21:25:36.181Z,6.00
2022-11-09T21:29:38.442Z,4.18
2022-11-09T21:33:20.136Z,4.10
2022-11-09T21:37:03.021Z,4.53
2022-11-09T21:40:44.476Z,4.65
2022-11-09T21:44:26.129Z,4.10
2022-11-09T21:48:08.179Z,5.10
2022-11-09T21:51:49.952Z,5.05
2022-11-09T21:55:33.264Z,5.85
2022-11-09T21:59:16.799Z,5.10
2022-11-09T22:02:58.175Z,5.35
2022-11-09T22:06:41.859Z,4.25
2022-11-09T22:10:23.515Z,4.47
2022-11-09T22:14:23.594Z,4.13
2022-11-09T22:18:05.837Z,4.30
2022-11-09T22:21:46.128Z,4.93
2022-11-09T22:25:27.768Z,4.57
2022-11-09T22:29:10.464Z,4.13
2022-11-09T22:32:51.878Z,4.93
2022-11-09T22:36:33.231Z,4.43
2022-11-09T22:40:14.416Z,3.88
2022-11-09T22:43:56.499Z,3.95
2022-11-09T22:47:39.498Z,4.22
2022-11-09T22:51:21.022Z,4.57
2022-11-09T22:55:02.902Z,4.75
2022-11-09T22:58:45.070Z,3.58
2022-11-09T23:02:26.477Z,5.10
2022-11-09T23:06:11.539Z,4.32
2022-11-09T23:09:53.177Z,4.57
2022-11-09T23:13:35.041Z,3.83
2022-11-09T23:17:30.295Z,4.53
2022-11-09T23:21:14.110Z,3.83
2022-11-09T23:25:12.909Z,4.93
2022-11-09T23:28:55.510Z,3.70
2022-11-09T23:32:37.190Z,4.25
2022-11-09T23:36:20.051Z,4.03
2022-11-09T23:40:01.808Z,3.70
2022-11-09T23:43:48.658Z,3.25
2022-11-09T23:47:31.163Z,3.40
2022-11-09T23:51:12.956Z,4.38
2022-11-09T23:54:55.869Z,3.85
2022-11-09T23:58:37.690Z,3.30
